Time;durP1;ratioP1;P1;durP2;ratioP2;P2;SDS_P1;SDS_P2;PMS_P1;PMS_P2;Temp;Humidity;BMP_temperature;BMP_pressure;BME280_temperature;BME280_humidity;BME280_pressure;Samples;Min_cycle;Max_cycle;Signal;HPM_P1;HPM_P2
2024/04/16 00:01:46;;;;;;;;;;;16.70;49.60;;;;;;5416459;26;19961;-77
2024/04/16 00:04:11;;;;;;;;;;;17.00;49.90;;;;;;5384975;26;20356;-76
2024/04/16 00:06:37;;;;;;;;;;;17.00;49.90;;;;;;5416512;26;20520;-76
2024/04/16 00:09:02;;;;;;;;;;;17.00;49.80;;;;;;5416669;26;19929;-76
2024/04/16 00:11:28;;;;;;;;;;;17.00;49.80;;;;;;5416433;26;20457;-76
2024/04/16 00:13:53;;;;;;;;;;;17.00;49.60;;;;;;5416408;26;19936;-76
2024/04/16 00:16:19;;;;;;;;;;;17.00;49.70;;;;;;5416295;26;19968;-77
2024/04/16 00:18:45;;;;;;;;;;;16.90;49.10;;;;;;5384540;26;19929;-76
2024/04/16 00:21:11;;;;;;;;;;;17.10;49.20;;;;;;5416934;26;19929;-76
2024/04/16 00:23:36;;;;;;;;;;;17.00;49.60;;;;;;5384465;26;19929;-76
2024/04/16 00:26:02;;;;;;;;;;;16.90;49.30;;;;;;5416209;26;20337;-76
2024/04/16 00:28:28;;;;;;;;;;;16.90;49.30;;;;;;5416208;26;20031;-76
2024/04/16 00:30:54;;;;;;;;;;;16.90;49.40;;;;;;5416013;26;20264;-77
2024/04/16 00:33:19;;;;;;;;;;;16.90;49.90;;;;;;5416285;26;19956;-76
2024/04/16 00:35:45;;;;;;;;;;;16.90;49.80;;;;;;5416476;26;19936;-76
2024/04/16 00:38:10;;;;;;;;;;;16.90;50.00;;;;;;5415994;26;19936;-76
2024/04/16 00:40:36;;;;;;;;;;;16.90;49.90;;;;;;5415684;26;19929;-76
2024/04/16 00:43:14;;;;;;;;;;;16.90;49.80;;;;;;5415883;26;19936;-76
2024/04/16 00:45:40;;;;;;;;;;;16.90;49.90;;;;;;5416139;26;19957;-76
2024/04/16 00:48:07;;;;;;;;;;;16.90;50.10;;;;;;5416049;26;19997;-76
2024/04/16 00:50:32;;;;;;;;;;;16.90;49.80;;;;;;5416252;26;19928;-76
2024/04/16 00:52:58;;;;;;;;;;;16.90;50.00;;;;;;5415825;26;19940;-76
2024/04/16 00:55:23;;;;;;;;;;;17.00;49.60;;;;;;5415483;26;20378;-76
2024/04/16 00:57:49;;;;;;;;;;;16.90;50.10;;;;;;5415610;26;20020;-76
2024/04/16 01:00:14;;;;;;;;;;;16.90;50.50;;;;;;5415735;26;19929;-76
2024/04/16 01:02:40;;;;;;;;;;;16.90;50.20;;;;;;5415410;26;19929;-76
2024/04/16 01:05:06;;;;;;;;;;;16.90;50.30;;;;;;5415400;26;20036;-76
2024/04/16 01:07:31;;;;;;;;;;;16.90;50.00;;;;;;5415328;26;19936;-76
2024/04/16 01:09:57;;;;;;;;;;;16.90;50.50;;;;;;5415748;26;19940;-77
2024/04/16 01:12:22;;;;;;;;;;;16.90;50.00;;;;;;5415148;26;20412;-77
2024/04/16 01:14:47;;;;;;;;;;;16.90;50.60;;;;;;5415116;26;19936;-77
2024/04/16 01:17:13;;;;;;;;;;;16.90;50.40;;;;;;5415205;26;20373;-78
2024/04/16 01:19:38;;;;;;;;;;;16.90;50.70;;;;;;5415199;26;20039;-79
2024/04/16 01:22:04;;;;;;;;;;;16.90;50.70;;;;;;5415017;26;19939;-79
2024/04/16 01:24:29;;;;;;;;;;;16.90;50.70;;;;;;5414923;26;19928;-79
2024/04/16 01:26:56;;;;;;;;;;;16.90;50.80;;;;;;5415303;26;19929;-80
2024/04/16 01:29:22;;;;;;;;;;;16.90;50.50;;;;;;5415291;26;19937;-79
2024/04/16 01:31:48;;;;;;;;;;;16.90;50.70;;;;;;5415167;26;20020;-80
2024/04/16 01:34:13;;;;;;;;;;;16.90;50.80;;;;;;5415337;26;19929;-80
2024/04/16 01:36:40;;;;;;;;;;;16.80;50.10;;;;;;5418812;26;19936;-79
2024/04/16 01:39:05;;;;;;;;;;;16.90;51.00;;;;;;5418554;26;20332;-79
2024/04/16 01:41:31;;;;;;;;;;;17.00;50.80;;;;;;5418427;26;19937;-80
2024/04/16 01:43:56;;;;;;;;;;;17.00;50.70;;;;;;5418419;26;19998;-79
2024/04/16 01:46:21;;;;;;;;;;;16.90;50.70;;;;;;5418485;26;19929;-80
2024/04/16 01:48:47;;;;;;;;;;;16.90;50.80;;;;;;5418467;26;20271;-79
2024/04/16 01:51:12;;;;;;;;;;;16.90;50.90;;;;;;5418764;26;19928;-80
2024/04/16 01:53:38;;;;;;;;;;;17.00;50.40;;;;;;5417946;26;20002;-79
2024/04/16 01:56:04;;;;;;;;;;;16.90;50.70;;;;;;5418202;26;20231;-80
2024/04/16 01:58:29;;;;;;;;;;;16.90;51.00;;;;;;5417713;26;19936;-79
2024/04/16 02:00:58;;;;;;;;;;;16.90;51.00;;;;;;5417708;26;19994;-79
2024/04/16 02:03:24;;;;;;;;;;;16.90;49.20;;;;;;5417978;26;19936;-79
2024/04/16 02:05:49;;;;;;;;;;;17.00;49.70;;;;;;5418394;26;19929;-79
2024/04/16 02:08:15;;;;;;;;;;;17.00;51.10;;;;;;5417723;26;19944;-79
2024/04/16 02:10:50;;;;;;;;;;;18.60;51.80;;;;;;5417668;26;19936;-79
2024/04/16 02:13:15;;;;;;;;;;;17.00;50.30;;;;;;5417571;26;19957;-79
2024/04/16 02:15:41;;;;;;;;;;;16.90;50.90;;;;;;5417503;26;19929;-79
2024/04/16 02:18:06;;;;;;;;;;;17.00;51.10;;;;;;5417367;26;20301;-79
2024/04/16 02:20:31;;;;;;;;;;;16.90;51.00;;;;;;5417567;26;19929;-80
2024/04/16 02:22:57;;;;;;;;;;;16.90;51.00;;;;;;5417409;26;19965;-79
2024/04/16 02:25:22;;;;;;;;;;;17.00;51.00;;;;;;5417438;26;19936;-80
2024/04/16 02:27:48;;;;;;;;;;;17.00;51.00;;;;;;5417664;26;19933;-79
2024/04/16 02:30:13;;;;;;;;;;;17.00;50.60;;;;;;5417763;26;19936;-79
2024/04/16 02:32:39;;;;;;;;;;;16.90;50.80;;;;;;5417680;26;19941;-79
2024/04/16 02:35:05;;;;;;;;;;;17.00;50.80;;;;;;5417968;26;19954;-79
2024/04/16 02:37:30;;;;;;;;;;;16.90;50.70;;;;;;5417504;26;19936;-79
2024/04/16 02:39:55;;;;;;;;;;;16.90;51.30;;;;;;5417335;26;19929;-79
2024/04/16 02:42:21;;;;;;;;;;;16.90;51.00;;;;;;5417396;26;19929;-79
2024/04/16 02:44:46;;;;;;;;;;;16.50;50.60;;;;;;5417596;26;20379;-79
2024/04/16 02:47:12;;;;;;;;;;;16.90;50.80;;;;;;5415718;26;19979;-79
2024/04/16 02:49:37;;;;;;;;;;;16.90;50.70;;;;;;5417417;26;20274;-79
2024/04/16 02:52:03;;;;;;;;;;;16.90;51.00;;;;;;5417127;26;19964;-79
2024/04/16 02:54:28;;;;;;;;;;;17.00;50.30;;;;;;5417175;26;20291;-79
2024/04/16 02:56:54;;;;;;;;;;;16.90;50.80;;;;;;5417129;26;19932;-79
2024/04/16 02:59:19;;;;;;;;;;;16.90;50.80;;;;;;5417267;26;19929;-79
2024/04/16 03:01:48;;;;;;;;;;;18.20;50.90;;;;;;5417763;26;19941;-79
2024/04/16 03:04:13;;;;;;;;;;;17.10;49.30;;;;;;5417083;26;20116;-79
2024/04/16 03:06:39;;;;;;;;;;;16.80;50.50;;;;;;5417367;26;19936;-79
2024/04/16 03:09:04;;;;;;;;;;;17.10;51.10;;;;;;5417303;26;19929;-79
2024/04/16 03:11:30;;;;;;;;;;;16.70;50.70;;;;;;5417342;26;19953;-79
2024/04/16 03:13:55;;;;;;;;;;;16.90;50.80;;;;;;5417217;26;19940;-79
2024/04/16 03:16:21;;;;;;;;;;;16.90;50.90;;;;;;5417304;26;19936;-79
2024/04/16 03:18:47;;;;;;;;;;;16.80;51.00;;;;;;5417127;26;20001;-79
2024/04/16 03:21:14;;;;;;;;;;;16.90;51.00;;;;;;5416856;26;19929;-79
2024/04/16 03:23:39;;;;;;;;;;;16.80;50.70;;;;;;5416873;26;20019;-80
2024/04/16 03:26:05;;;;;;;;;;;16.90;50.70;;;;;;5416779;26;19938;-79
2024/04/16 03:28:30;;;;;;;;;;;16.90;50.80;;;;;;5416955;26;20320;-79
2024/04/16 03:30:56;;;;;;;;;;;15.10;49.70;;;;;;5417290;26;20324;-79
2024/04/16 03:33:21;;;;;;;;;;;16.80;50.90;;;;;;5416871;26;19929;-79
2024/04/16 03:35:56;;;;;;;;;;;16.80;50.90;;;;;;5416902;26;19929;-79
2024/04/16 03:38:21;;;;;;;;;;;16.80;49.10;;;;;;5385483;26;19937;-79
2024/04/16 03:40:54;;;;;;;;;;;16.80;50.70;;;;;;5416954;26;19929;-79
2024/04/16 03:43:19;;;;;;;;;;;16.80;49.40;;;;;;5416798;26;20312;-79
2024/04/16 03:45:51;;;;;;;;;;;16.80;51.00;;;;;;5416952;26;19937;-79
2024/04/16 03:48:16;;;;;;;;;;;16.80;50.90;;;;;;5416800;26;19961;-79
2024/04/16 03:50:42;;;;;;;;;;;16.80;51.00;;;;;;5416742;26;19929;-79
2024/04/16 03:53:07;;;;;;;;;;;16.80;50.60;;;;;;5416653;26;19937;-79
2024/04/16 03:55:33;;;;;;;;;;;16.80;51.20;;;;;;5416358;26;19944;-79
2024/04/16 03:57:58;;;;;;;;;;;17.40;51.50;;;;;;5415839;26;19965;-79
2024/04/16 04:03:08;;;;;;;;;;;17.10;50.20;;;;;;5416575;26;20001;-79
2024/04/16 04:07:41;;;;;;;;;;;16.80;49.20;;;;;;5544140;25;19960;-80
2024/04/16 04:10:07;;;;;;;;;;;16.80;51.60;;;;;;5543927;25;20329;-80
2024/04/16 04:12:35;;;;;;;;;;;16.80;51.60;;;;;;5543812;25;19960;-78
2024/04/16 04:15:02;;;;;;;;;;;16.80;51.60;;;;;;5544240;25;19927;-80
2024/04/16 04:17:27;;;;;;;;;;;16.80;51.90;;;;;;5544193;25;19928;-81
2024/04/16 04:19:53;;;;;;;;;;;16.80;52.00;;;;;;5544167;25;19928;-80
2024/04/16 04:22:19;;;;;;;;;;;16.80;51.50;;;;;;5542077;25;19932;-80
2024/04/16 04:24:45;;;;;;;;;;;16.80;51.60;;;;;;5543860;25;19927;-81
2024/04/16 04:27:13;;;;;;;;;;;16.80;51.30;;;;;;5543818;25;19927;-80
2024/04/16 04:29:39;;;;;;;;;;;16.80;50.10;;;;;;5541927;25;20334;-79
2024/04/16 04:32:04;;;;;;;;;;;16.00;51.40;;;;;;5543584;25;19928;-79
2024/04/16 04:34:30;;;;;;;;;;;16.80;51.40;;;;;;5543502;25;19927;-79
2024/04/16 04:36:55;;;;;;;;;;;16.80;51.80;;;;;;5543474;25;19932;-79
2024/04/16 04:39:21;;;;;;;;;;;16.80;52.10;;;;;;5543511;25;19927;-80
2024/04/16 04:41:46;;;;;;;;;;;15.90;51.20;;;;;;5543355;25;19934;-80
2024/04/16 04:44:12;;;;;;;;;;;16.80;51.20;;;;;;5543316;25;19928;-80
2024/04/16 04:46:37;;;;;;;;;;;16.70;51.70;;;;;;5543242;25;19927;-80
2024/04/16 04:49:03;;;;;;;;;;;16.70;51.80;;;;;;5543738;25;20025;-80
2024/04/16 04:51:29;;;;;;;;;;;16.70;52.00;;;;;;5543317;25;19928;-80
2024/04/16 04:53:55;;;;;;;;;;;16.80;51.00;;;;;;5530742;25;19935;-80
2024/04/16 04:56:21;;;;;;;;;;;16.70;51.80;;;;;;5506729;26;20018;-80
2024/04/16 04:58:47;;;;;;;;;;;16.70;51.70;;;;;;5504098;26;20000;-80
2024/04/16 05:01:13;;;;;;;;;;;16.70;51.90;;;;;;5506070;25;19934;-80
2024/04/16 05:03:38;;;;;;;;;;;16.70;51.90;;;;;;5506018;26;19940;-81
2024/04/16 05:06:05;;;;;;;;;;;16.70;52.10;;;;;;5505786;26;19928;-78
2024/04/16 05:08:31;;;;;;;;;;;16.70;51.20;;;;;;5506209;26;19960;-79
2024/04/16 05:10:57;;;;;;;;;;;16.80;51.80;;;;;;5506151;26;19940;-82
2024/04/16 05:13:22;;;;;;;;;;;16.40;51.80;;;;;;5506374;26;19935;-85
2024/04/16 05:15:48;;;;;;;;;;;16.70;52.20;;;;;;5506008;26;19928;-83
2024/04/16 05:18:13;;;;;;;;;;;16.70;52.10;;;;;;5493829;26;19935;-83
2024/04/16 05:20:39;;;;;;;;;;;16.70;52.50;;;;;;5490167;26;20106;-83
2024/04/16 05:23:04;;;;;;;;;;;16.70;52.30;;;;;;5489438;26;19928;-82
2024/04/16 05:25:30;;;;;;;;;;;16.70;52.20;;;;;;5490324;26;20322;-79
2024/04/16 05:27:56;;;;;;;;;;;16.70;52.50;;;;;;5490271;26;19977;-86
2024/04/16 05:30:21;;;;;;;;;;;16.70;52.30;;;;;;5490103;26;20263;-86
2024/04/16 05:32:47;;;;;;;;;;;16.70;52.40;;;;;;5489907;26;19947;-81
2024/04/16 05:35:13;;;;;;;;;;;16.70;52.00;;;;;;5489402;26;19936;-81
2024/04/16 05:37:39;;;;;;;;;;;16.70;52.40;;;;;;5489902;26;20308;-81
2024/04/16 05:40:06;;;;;;;;;;;16.80;52.60;;;;;;5489462;26;20391;-81
2024/04/16 05:42:31;;;;;;;;;;;16.80;51.50;;;;;;5489502;26;20369;-81
2024/04/16 05:44:57;;;;;;;;;;;16.70;52.40;;;;;;5489565;26;19928;-81
2024/04/16 05:47:24;;;;;;;;;;;16.70;52.50;;;;;;5489255;26;19936;-81
2024/04/16 05:49:50;;;;;;;;;;;16.70;52.50;;;;;;5489268;26;20350;-81
2024/04/16 05:52:15;;;;;;;;;;;16.80;52.80;;;;;;5489259;26;19928;-79
2024/04/16 05:54:41;;;;;;;;;;;16.80;52.10;;;;;;5489236;26;19939;-81
2024/04/16 05:57:07;;;;;;;;;;;16.80;52.50;;;;;;5489123;26;20058;-81
2024/04/16 05:59:33;;;;;;;;;;;16.80;52.90;;;;;;5489240;26;19928;-81
2024/04/16 06:01:59;;;;;;;;;;;16.80;52.70;;;;;;5489405;26;19935;-81
2024/04/16 06:04:25;;;;;;;;;;;16.80;53.30;;;;;;5489066;26;19945;-81
2024/04/16 06:06:51;;;;;;;;;;;16.80;52.30;;;;;;5488431;26;19947;-80
2024/04/16 06:09:17;;;;;;;;;;;16.80;53.10;;;;;;5488691;26;19928;-80
2024/04/16 06:11:43;;;;;;;;;;;16.80;53.00;;;;;;5488625;26;19935;-80
2024/04/16 06:14:09;;;;;;;;;;;16.80;52.80;;;;;;5488617;26;19956;-80
2024/04/16 06:16:35;;;;;;;;;;;16.80;53.00;;;;;;5488696;26;19928;-81
2024/04/16 06:19:01;;;;;;;;;;;16.80;52.80;;;;;;5488338;26;20218;-80
2024/04/16 06:21:28;;;;;;;;;;;16.80;53.00;;;;;;5488994;26;19940;-80
2024/04/16 06:23:54;;;;;;;;;;;16.80;52.80;;;;;;5488634;26;19928;-83
2024/04/16 06:26:20;;;;;;;;;;;16.80;52.80;;;;;;5488766;26;20270;-80
2024/04/16 06:28:46;;;;;;;;;;;16.80;52.90;;;;;;5490757;26;19934;-81
2024/04/16 06:31:12;;;;;;;;;;;16.90;52.80;;;;;;5488140;26;20274;-79
2024/04/16 06:33:38;;;;;;;;;;;16.90;52.90;;;;;;5488722;26;19928;-78
2024/04/16 06:36:04;;;;;;;;;;;16.80;52.90;;;;;;5488430;26;19932;-78
2024/04/16 06:38:31;;;;;;;;;;;16.80;53.00;;;;;;5488623;26;19934;-78
2024/04/16 06:40:57;;;;;;;;;;;16.90;52.60;;;;;;5488322;26;19996;-77
2024/04/16 06:43:22;;;;;;;;;;;16.90;52.50;;;;;;5488115;26;19936;-78
2024/04/16 06:45:48;;;;;;;;;;;16.90;52.80;;;;;;5488058;26;19928;-78
2024/04/16 06:48:14;;;;;;;;;;;16.90;53.00;;;;;;5488095;26;19935;-80
2024/04/16 06:50:47;;;;;;;;;;;16.40;51.90;;;;;;5491730;26;19939;-78
2024/04/16 06:53:13;;;;;;;;;;;17.40;52.70;;;;;;5488167;26;19928;-75
2024/04/16 06:55:39;;;;;;;;;;;16.90;53.00;;;;;;5488105;26;19943;-77
2024/04/16 06:58:06;;;;;;;;;;;16.90;52.90;;;;;;5488394;26;19928;-77
2024/04/16 07:00:31;;;;;;;;;;;16.90;52.90;;;;;;5488112;26;19965;-76
2024/04/16 07:02:57;;;;;;;;;;;16.90;53.00;;;;;;5488251;26;20363;-76
2024/04/16 07:05:23;;;;;;;;;;;16.90;53.00;;;;;;5487801;26;19932;-76
2024/04/16 07:07:49;;;;;;;;;;;16.90;52.90;;;;;;5487992;26;19934;-75
2024/04/16 07:10:15;;;;;;;;;;;16.90;52.90;;;;;;5487998;26;19935;-77
2024/04/16 07:12:41;;;;;;;;;;;17.10;52.60;;;;;;5488157;26;19928;-79
2024/04/16 07:15:08;;;;;;;;;;;17.00;52.70;;;;;;5488091;26;19928;-78
2024/04/16 07:17:34;;;;;;;;;;;17.30;52.20;;;;;;5488049;26;19958;-79
2024/04/16 07:20:01;;;;;;;;;;;17.30;52.30;;;;;;5488194;26;19928;-77
2024/04/16 07:22:27;;;;;;;;;;;17.20;52.20;;;;;;5488017;26;20357;-78
2024/04/16 07:24:56;;;;;;;;;;;17.30;52.40;;;;;;5487612;26;19928;-77
2024/04/16 07:27:22;;;;;;;;;;;17.20;51.20;;;;;;5487422;26;19932;-76
2024/04/16 07:29:48;;;;;;;;;;;17.30;52.60;;;;;;5487514;26;19935;-78
2024/04/16 07:32:14;;;;;;;;;;;17.20;52.50;;;;;;5487306;26;20254;-80
2024/04/16 07:34:40;;;;;;;;;;;17.20;52.50;;;;;;5487557;26;19935;-78
2024/04/16 07:37:06;;;;;;;;;;;17.20;52.40;;;;;;5487713;26;19935;-78
2024/04/16 07:39:32;;;;;;;;;;;17.30;53.20;;;;;;5487769;26;19928;-79
2024/04/16 07:41:58;;;;;;;;;;;17.20;52.50;;;;;;5486684;26;19928;-81
2024/04/16 07:44:24;;;;;;;;;;;17.20;53.00;;;;;;5487159;26;20262;-77
2024/04/16 07:46:50;;;;;;;;;;;17.20;52.80;;;;;;5487805;26;19932;-79
2024/04/16 07:49:16;;;;;;;;;;;17.30;53.30;;;;;;5487738;26;19938;-80
2024/04/16 07:51:43;;;;;;;;;;;17.20;53.10;;;;;;5487387;26;19936;-80
2024/04/16 07:54:09;;;;;;;;;;;17.10;52.50;;;;;;5487178;26;19952;-80
2024/04/16 07:56:35;;;;;;;;;;;17.20;53.90;;;;;;5487149;26;20401;-79
2024/04/16 07:59:01;;;;;;;;;;;17.20;53.30;;;;;;5487633;26;19928;-79
2024/04/16 08:01:27;;;;;;;;;;;17.30;53.60;;;;;;5487057;26;19934;-80
2024/04/16 08:03:53;;;;;;;;;;;17.10;53.40;;;;;;5487361;26;19954;-79
2024/04/16 08:06:19;;;;;;;;;;;17.10;53.70;;;;;;5486789;26;19959;-78
2024/04/16 08:08:44;;;;;;;;;;;17.20;53.60;;;;;;5486894;26;19928;-78
2024/04/16 08:11:11;;;;;;;;;;;17.20;53.70;;;;;;5486970;26;19928;-79
2024/04/16 08:13:38;;;;;;;;;;;17.10;53.30;;;;;;5486592;26;20421;-78
2024/04/16 08:16:04;;;;;;;;;;;17.20;53.70;;;;;;5487142;26;19948;-79
2024/04/16 08:18:30;;;;;;;;;;;17.20;53.60;;;;;;5486594;26;20252;-79
2024/04/16 08:20:56;;;;;;;;;;;17.20;53.90;;;;;;5486850;26;19935;-80
2024/04/16 08:23:22;;;;;;;;;;;17.10;53.80;;;;;;5486848;26;19928;-78
2024/04/16 08:25:58;;;;;;;;;;;17.20;54.00;;;;;;5488380;26;20003;-81
2024/04/16 08:28:24;;;;;;;;;;;17.20;52.30;;;;;;5486648;26;19929;-79
2024/04/16 08:30:52;;;;;;;;;;;17.20;54.00;;;;;;5486306;26;20385;-78
2024/04/16 08:33:20;;;;;;;;;;;17.20;53.90;;;;;;5486198;26;19935;-77
2024/04/16 08:35:46;;;;;;;;;;;17.20;53.60;;;;;;5486445;26;19940;-79
2024/04/16 08:38:12;;;;;;;;;;;17.20;53.10;;;;;;5486189;26;19935;-78
2024/04/16 08:40:38;;;;;;;;;;;17.20;54.10;;;;;;5486225;26;19928;-83
2024/04/16 08:43:04;;;;;;;;;;;17.10;54.00;;;;;;5486126;26;19935;-81
2024/04/16 08:45:31;;;;;;;;;;;17.20;53.10;;;;;;5486971;26;19928;-83
2024/04/16 08:47:57;;;;;;;;;;;16.80;54.00;;;;;;5486426;26;19932;-83
2024/04/16 08:50:24;;;;;;;;;;;17.30;53.80;;;;;;5486172;26;19976;-83
2024/04/16 08:52:51;;;;;;;;;;;17.20;53.80;;;;;;5487177;26;20010;-83
2024/04/16 08:55:18;;;;;;;;;;;17.30;53.20;;;;;;5489741;26;20331;-82
2024/04/16 08:57:44;;;;;;;;;;;17.50;53.80;;;;;;5490024;26;19939;-82
2024/04/16 09:00:10;;;;;;;;;;;17.30;53.70;;;;;;5489666;26;20335;-82
2024/04/16 09:02:37;;;;;;;;;;;17.30;53.50;;;;;;5489738;26;19932;-82
2024/04/16 09:05:03;;;;;;;;;;;17.30;53.50;;;;;;5489935;26;19932;-83
2024/04/16 09:07:30;;;;;;;;;;;17.30;53.30;;;;;;5489543;26;20362;-82
2024/04/16 09:09:56;;;;;;;;;;;17.30;53.60;;;;;;5489839;26;19973;-83
2024/04/16 09:12:22;;;;;;;;;;;17.30;53.70;;;;;;5490779;26;19928;-81
2024/04/16 09:14:48;;;;;;;;;;;17.40;53.80;;;;;;5489796;26;20329;-77
2024/04/16 09:17:13;;;;;;;;;;;17.30;53.40;;;;;;5488318;26;19938;-77
2024/04/16 09:19:41;;;;;;;;;;;17.30;53.60;;;;;;5487914;26;20350;-79
2024/04/16 09:22:06;;;;;;;;;;;17.40;53.70;;;;;;5489745;26;19964;-77
2024/04/16 09:24:32;;;;;;;;;;;17.40;54.00;;;;;;5487746;26;19996;-78
2024/04/16 09:27:00;;;;;;;;;;;17.40;53.70;;;;;;5489759;26;19960;-78
2024/04/16 09:29:26;;;;;;;;;;;17.40;52.40;;;;;;5489817;26;19936;-78
2024/04/16 09:31:58;;;;;;;;;;;17.50;53.40;;;;;;5489332;26;19939;-78
2024/04/16 09:34:24;;;;;;;;;;;17.40;52.10;;;;;;5489763;26;19932;-78
2024/04/16 09:36:49;;;;;;;;;;;17.40;53.50;;;;;;5489800;26;19928;-78
2024/04/16 09:39:22;;;;;;;;;;;17.40;53.20;;;;;;5489554;26;19934;-77
2024/04/16 09:41:48;;;;;;;;;;;17.50;52.70;;;;;;5489523;26;19928;-78
2024/04/16 09:44:17;;;;;;;;;;;17.40;53.70;;;;;;5489243;26;20299;-78
2024/04/16 09:46:44;;;;;;;;;;;17.40;52.30;;;;;;5489208;26;20222;-78
2024/04/16 09:49:12;;;;;;;;;;;17.40;53.70;;;;;;5489178;26;19964;-78
2024/04/16 09:51:38;;;;;;;;;;;17.40;53.60;;;;;;5489026;26;20270;-77
2024/04/16 09:54:09;;;;;;;;;;;17.50;53.50;;;;;;5489252;26;19935;-78
2024/04/16 09:56:37;;;;;;;;;;;17.40;52.30;;;;;;5489146;26;20258;-78
2024/04/16 09:59:04;;;;;;;;;;;18.10;54.00;;;;;;5489172;26;20266;-78
2024/04/16 10:01:31;;;;;;;;;;;17.50;53.40;;;;;;5489009;26;19928;-78
2024/04/16 10:03:57;;;;;;;;;;;17.50;53.90;;;;;;5488383;26;19928;-78
2024/04/16 10:06:23;;;;;;;;;;;17.50;54.00;;;;;;5488478;26;19928;-77
2024/04/16 10:08:50;;;;;;;;;;;17.50;53.60;;;;;;5488447;26;20338;-77
2024/04/16 10:11:17;;;;;;;;;;;17.50;53.20;;;;;;5489209;26;19935;-78
2024/04/16 10:13:43;;;;;;;;;;;17.50;53.60;;;;;;5488746;26;19975;-78
2024/04/16 10:16:10;;;;;;;;;;;17.50;53.60;;;;;;5488639;26;20300;-78
2024/04/16 10:18:36;;;;;;;;;;;17.90;53.90;;;;;;5488415;26;20031;-78
2024/04/16 10:21:02;;;;;;;;;;;17.50;53.80;;;;;;5488328;26;19928;-78
2024/04/16 10:23:29;;;;;;;;;;;17.50;53.60;;;;;;5488622;26;19996;-78
2024/04/16 10:25:56;;;;;;;;;;;17.50;53.40;;;;;;5488321;26;19935;-78
2024/04/16 10:28:26;;;;;;;;;;;17.50;53.70;;;;;;5488678;26;20302;-78
2024/04/16 10:30:59;;;;;;;;;;;17.50;52.20;;;;;;5488578;26;19962;-78
2024/04/16 10:33:25;;;;;;;;;;;17.60;52.20;;;;;;5488701;26;19936;-78
2024/04/16 10:35:52;;;;;;;;;;;17.50;53.60;;;;;;5488739;26;20261;-78
2024/04/16 10:38:18;;;;;;;;;;;17.50;53.40;;;;;;5489241;26;20000;-77
2024/04/16 10:40:52;;;;;;;;;;;17.60;53.70;;;;;;5488558;26;19928;-77
2024/04/16 10:43:21;;;;;;;;;;;17.60;53.50;;;;;;5488853;26;20327;-77
2024/04/16 10:45:49;;;;;;;;;;;17.60;53.40;;;;;;5488492;26;19962;-77
2024/04/16 10:48:18;;;;;;;;;;;17.70;53.80;;;;;;5488569;26;20273;-77
2024/04/16 10:50:45;;;;;;;;;;;17.70;52.10;;;;;;5488718;26;19997;-77
2024/04/16 10:53:14;;;;;;;;;;;17.60;52.90;;;;;;5488589;26;19928;-76
2024/04/16 10:55:41;;;;;;;;;;;17.50;52.90;;;;;;5488795;26;19939;-76
2024/04/16 10:58:08;;;;;;;;;;;17.60;53.30;;;;;;5488890;26;19928;-76
2024/04/16 11:00:34;;;;;;;;;;;17.60;53.50;;;;;;5487061;26;19963;-77
2024/04/16 11:03:00;;;;;;;;;;;17.50;53.50;;;;;;5488580;26;19935;-77
2024/04/16 11:05:26;;;;;;;;;;;17.60;53.30;;;;;;5488432;26;19928;-77
2024/04/16 11:07:52;;;;;;;;;;;17.60;53.50;;;;;;5489619;26;19997;-77
2024/04/16 11:10:19;;;;;;;;;;;17.60;53.30;;;;;;5489167;26;19961;-77
2024/04/16 11:12:45;;;;;;;;;;;17.50;53.30;;;;;;5488645;26;20258;-77
2024/04/16 11:15:11;;;;;;;;;;;17.60;53.20;;;;;;5487478;26;19961;-77
2024/04/16 11:17:38;;;;;;;;;;;17.50;53.60;;;;;;5488840;26;19928;-77
2024/04/16 11:20:04;;;;;;;;;;;17.50;53.10;;;;;;5488552;26;20364;-77
2024/04/16 11:22:31;;;;;;;;;;;17.60;52.80;;;;;;5488599;26;19935;-77
2024/04/16 11:24:57;;;;;;;;;;;17.50;53.00;;;;;;5488531;26;19934;-76
2024/04/16 11:27:23;;;;;;;;;;;17.50;53.20;;;;;;5488120;26;20320;-76
2024/04/16 11:29:49;;;;;;;;;;;17.50;53.30;;;;;;5488298;26;19932;-76
2024/04/16 11:32:16;;;;;;;;;;;17.50;53.10;;;;;;5488249;26;19935;-77
2024/04/16 11:34:42;;;;;;;;;;;17.50;53.10;;;;;;5488576;26;19928;-77
2024/04/16 11:37:08;;;;;;;;;;;17.50;52.90;;;;;;5488133;26;20263;-78
2024/04/16 11:39:36;;;;;;;;;;;17.50;53.20;;;;;;5488219;26;19933;-78
2024/04/16 11:42:02;;;;;;;;;;;17.50;52.90;;;;;;5488376;26;19928;-78
2024/04/16 11:44:28;;;;;;;;;;;17.50;52.80;;;;;;5488243;26;19928;-78
2024/04/16 11:46:54;;;;;;;;;;;17.50;52.90;;;;;;5488189;26;19952;-78
2024/04/16 11:49:20;;;;;;;;;;;17.50;53.10;;;;;;5488248;26;20247;-77
2024/04/16 11:51:49;;;;;;;;;;;17.50;52.90;;;;;;5488068;26;19935;-77
2024/04/16 11:54:15;;;;;;;;;;;17.60;52.60;;;;;;5488059;26;19996;-77
2024/04/16 11:56:41;;;;;;;;;;;17.50;52.50;;;;;;5488091;26;19936;-77
2024/04/16 11:59:07;;;;;;;;;;;17.50;52.90;;;;;;5488104;26;19928;-77
2024/04/16 12:01:33;;;;;;;;;;;17.50;52.80;;;;;;5487954;26;19940;-77
2024/04/16 12:03:59;;;;;;;;;;;17.10;52.60;;;;;;5488274;26;19939;-77
2024/04/16 12:06:25;;;;;;;;;;;17.50;52.90;;;;;;5487234;26;19932;-78
2024/04/16 12:08:51;;;;;;;;;;;17.50;52.90;;;;;;5487667;26;19960;-77
2024/04/16 12:11:17;;;;;;;;;;;17.10;52.70;;;;;;5487729;26;19930;-77
2024/04/16 12:13:42;;;;;;;;;;;17.50;52.80;;;;;;5487808;26;19928;-77
2024/04/16 12:16:08;;;;;;;;;;;17.50;52.50;;;;;;5487413;26;19928;-77
2024/04/16 12:18:34;;;;;;;;;;;17.40;52.40;;;;;;5487290;26;19939;-77
2024/04/16 12:21:00;;;;;;;;;;;17.50;52.90;;;;;;5487609;26;19932;-77
2024/04/16 12:23:26;;;;;;;;;;;17.40;53.00;;;;;;5487694;26;19928;-77
2024/04/16 12:25:52;;;;;;;;;;;17.40;53.10;;;;;;5487329;26;19956;-77
2024/04/16 12:28:19;;;;;;;;;;;17.50;52.50;;;;;;5490690;26;19928;-77
2024/04/16 12:30:44;;;;;;;;;;;17.50;52.80;;;;;;5491068;26;19928;-77
2024/04/16 12:33:10;;;;;;;;;;;17.50;52.70;;;;;;5491593;26;19935;-77
2024/04/16 12:35:36;;;;;;;;;;;17.40;52.70;;;;;;5490729;26;20262;-77
2024/04/16 12:38:02;;;;;;;;;;;17.50;52.80;;;;;;5490282;26;19936;-75
2024/04/16 12:40:28;;;;;;;;;;;17.50;52.90;;;;;;5490408;26;19936;-78
2024/04/16 12:42:54;;;;;;;;;;;17.50;52.70;;;;;;5490318;26;19934;-78
2024/04/16 12:45:20;;;;;;;;;;;17.60;52.80;;;;;;5490437;26;19943;-77
2024/04/16 12:47:46;;;;;;;;;;;17.50;52.80;;;;;;5490381;26;20358;-77
2024/04/16 12:50:12;;;;;;;;;;;17.50;52.60;;;;;;5490278;26;19928;-77
2024/04/16 12:52:38;;;;;;;;;;;17.50;52.90;;;;;;5488409;26;20026;-77
2024/04/16 12:55:04;;;;;;;;;;;17.60;52.30;;;;;;5490091;26;20323;-77
2024/04/16 12:57:30;;;;;;;;;;;17.50;52.80;;;;;;5489923;26;19932;-77
2024/04/16 12:59:56;;;;;;;;;;;17.50;53.00;;;;;;5490116;26;19939;-77
2024/04/16 13:02:22;;;;;;;;;;;17.50;52.90;;;;;;5490571;26;19928;-78
2024/04/16 13:04:49;;;;;;;;;;;16.80;52.40;;;;;;5488205;26;19928;-78
2024/04/16 13:07:15;;;;;;;;;;;17.50;52.80;;;;;;5489785;26;20330;-77
2024/04/16 13:09:41;;;;;;;;;;;17.50;52.90;;;;;;5490598;26;19957;-77
2024/04/16 13:12:07;;;;;;;;;;;17.50;52.50;;;;;;5490207;26;19936;-76
2024/04/16 13:14:33;;;;;;;;;;;17.60;52.90;;;;;;5490115;26;20372;-77
2024/04/16 13:16:59;;;;;;;;;;;17.50;53.00;;;;;;5489998;26;19936;-78
2024/04/16 13:19:25;;;;;;;;;;;17.30;53.00;;;;;;5489842;26;19940;-79
2024/04/16 13:21:51;;;;;;;;;;;17.50;53.30;;;;;;5490025;26;19935;-77
2024/04/16 13:24:17;;;;;;;;;;;17.50;53.50;;;;;;5490113;26;19965;-77
2024/04/16 13:26:42;;;;;;;;;;;17.50;53.30;;;;;;5489596;26;19956;-76
2024/04/16 13:29:08;;;;;;;;;;;17.50;53.20;;;;;;5489773;26;19936;-76
2024/04/16 13:31:34;;;;;;;;;;;17.50;53.20;;;;;;5489990;26;20373;-76
2024/04/16 13:33:59;;;;;;;;;;;17.50;53.70;;;;;;5490180;26;19937;-76
2024/04/16 13:36:26;;;;;;;;;;;17.50;53.50;;;;;;5489814;26;19928;-75
2024/04/16 13:38:52;;;;;;;;;;;17.50;53.70;;;;;;5489213;26;19935;-75
2024/04/16 13:41:17;;;;;;;;;;;17.50;53.40;;;;;;5489658;26;19928;-76
2024/04/16 13:43:43;;;;;;;;;;;17.60;53.60;;;;;;5489836;26;19960;-76
2024/04/16 13:46:08;;;;;;;;;;;17.60;53.60;;;;;;5489480;26;19928;-76
2024/04/16 13:48:34;;;;;;;;;;;17.50;53.70;;;;;;5489939;26;19935;-76
2024/04/16 13:51:02;;;;;;;;;;;17.50;53.60;;;;;;5487947;26;19938;-76
2024/04/16 13:53:27;;;;;;;;;;;17.50;52.90;;;;;;5489550;26;20026;-76
2024/04/16 13:55:53;;;;;;;;;;;17.50;53.60;;;;;;5489674;26;19956;-76
2024/04/16 13:58:19;;;;;;;;;;;17.50;54.20;;;;;;5489410;26;19928;-76
2024/04/16 14:00:45;;;;;;;;;;;17.50;53.80;;;;;;5489663;26;19939;-76
2024/04/16 14:03:10;;;;;;;;;;;17.50;53.60;;;;;;5489407;26;19996;-76
2024/04/16 14:05:36;;;;;;;;;;;17.50;53.70;;;;;;5489128;26;20377;-76
2024/04/16 14:08:02;;;;;;;;;;;17.50;53.50;;;;;;5489368;26;19935;-76
2024/04/16 14:10:29;;;;;;;;;;;17.50;53.90;;;;;;5489190;26;20370;-76
2024/04/16 14:12:54;;;;;;;;;;;17.60;53.50;;;;;;5489033;26;19928;-76
2024/04/16 14:15:21;;;;;;;;;;;17.60;53.70;;;;;;5489030;26;19927;-76